East Union, Washington
Current Conditions -  °F | °C
As of 3:53 PM on Friday 28 Nov 2014 (Local Time) from KBFI Reporting Station
Light Rain Light Rain  
Wind Chill: 41°   Ceiling: 900
Heat Index: 41°   Visibility: 1.7mi
Dew Point: 36°   Wind: 3mph
Humidity: 82%   Direction: NA
Pressure: 29.51"   Gusts: NA
Location:  47.6108°N, 122.302°W
Report Text: KBFI 282353Z VRB03KT 1 3/4SM -RA BKN009 OVC024 05/02 A2951 RMK AO2 SLP991 P0003 60070 T00500022 10089 20050 53003
Loading
Personal Weather Stations






























Interactive Weather Map New forecast layout! Learn more

10-Day Weather Forecast

Advertisements
Track Severe Weather on mobile